Time;durP1;ratioP1;P1;durP2;ratioP2;P2;SDS_P1;SDS_P2;PMS_P1;PMS_P2;Temp;Humidity;BMP_temperature;BMP_pressure;BME280_temperature;BME280_humidity;BME280_pressure;Samples;Min_cycle;Max_cycle;Signal;HPM_P1;HPM_P2
2022/07/11 00:02:01;;;;;;;1.98;1.02;;;;;;;22.75;53.47;102466.06;5068717;28;20039;-65
2022/07/11 00:04:27;;;;;;;2.25;0.80;;;;;;;22.87;52.67;102466.66;5068381;28;20484;-63
2022/07/11 00:06:52;;;;;;;1.17;0.80;;;;;;;22.78;53.68;102470.19;5068736;28;20091;-64
2022/07/11 00:09:18;;;;;;;3.40;0.90;;;;;;;22.30;54.85;102463.84;5068866;28;20087;-65
2022/07/11 00:11:43;;;;;;;2.50;0.88;;;;;;;22.86;53.31;102469.69;5050382;28;20608;-64
2022/07/11 00:14:08;;;;;;;2.90;1.13;;;;;;;22.73;53.74;102454.53;5050707;28;20040;-65
2022/07/11 00:16:34;;;;;;;3.85;0.90;;;;;;;22.76;53.33;102458.66;5067869;28;20484;-65
2022/07/11 00:18:59;;;;;;;3.20;1.35;;;;;;;22.68;54.51;102466.28;5068921;28;20033;-64
2022/07/11 00:21:25;;;;;;;2.08;0.90;;;;;;;22.66;54.59;102456.69;5068536;28;20029;-66
2022/07/11 00:23:50;;;;;;;3.50;1.35;;;;;;;22.30;55.23;102447.41;5068652;28;20068;-65
2022/07/11 00:26:15;;;;;;;4.63;1.25;;;;;;;22.59;54.47;102461.59;5068964;28;20032;-66
2022/07/11 00:28:41;;;;;;;4.72;1.65;;;;;;;22.21;55.55;102459.13;5068198;28;20044;-66
2022/07/11 00:31:08;;;;;;;4.97;1.50;;;;;;;22.62;54.93;102464.59;5068250;28;20101;-66
2022/07/11 00:33:33;;;;;;;7.00;1.38;;;;;;;22.76;54.65;102461.41;5068469;28;20068;-64
2022/07/11 00:35:59;;;;;;;3.95;1.10;;;;;;;22.25;55.93;102449.31;5068394;28;20520;-65
2022/07/11 00:38:24;;;;;;;3.90;1.20;;;;;;;22.25;56.01;102446.56;5068788;28;20291;-65
2022/07/11 00:40:50;;;;;;;2.88;1.38;;;;;;;22.23;56.48;102454.22;5068587;28;20450;-64
2022/07/11 00:43:19;;;;;;;4.05;1.40;;;;;;;22.73;54.29;102449.06;5068038;28;20040;-66
2022/07/11 00:45:47;;;;;;;6.43;1.75;;;;;;;22.37;56.42;102447.16;5066054;28;20488;-64
2022/07/11 00:48:12;;;;;;;6.05;1.30;;;;;;;22.18;56.49;102446.78;5068396;28;20396;-65
2022/07/11 00:50:38;;;;;;;5.07;1.33;;;;;;;22.55;55.78;102453.03;5067959;28;20032;-65
2022/07/11 00:53:04;;;;;;;5.75;1.63;;;;;;;22.43;55.57;102449.69;5068495;28;20021;-65
2022/07/11 00:55:29;;;;;;;2.38;1.30;;;;;;;22.08;57.02;102443.97;5067751;28;20040;-66
2022/07/11 00:57:55;;;;;;;3.55;1.42;;;;;;;22.43;56.16;102448.84;5069058;28;20083;-66
2022/07/11 01:00:20;;;;;;;10.70;1.52;;;;;;;22.49;55.47;102448.63;5086583;28;20036;-66
2022/07/11 01:02:46;;;;;;;6.00;1.98;;;;;;;22.67;55.05;102447.38;5069427;28;20117;-65
2022/07/11 01:05:11;;;;;;;3.35;1.98;;;;;;;22.51;55.26;102445.59;5078765;28;20017;-64
2022/07/11 01:07:38;;;;;;;4.20;1.70;;;;;;;22.64;55.41;102454.19;5049022;28;20048;-67
2022/07/11 01:10:04;;;;;;;5.47;1.90;;;;;;;22.65;54.50;102444.91;5066029;28;20047;-65
2022/07/11 01:12:31;;;;;;;2.80;1.73;;;;;;;23.13;53.74;102442.91;5064757;28;20041;-65
2022/07/11 01:14:59;;;;;;;2.78;1.65;;;;;;;22.90;53.79;102437.91;5067210;28;20483;-65
2022/07/11 01:17:24;;;;;;;6.30;1.85;;;;;;;22.61;55.12;102446.53;5069507;28;20034;-64
2022/07/11 01:19:49;;;;;;;4.25;2.67;;;;;;;23.06;53.51;102436.81;5062229;28;20033;-66
2022/07/11 01:22:20;;;;;;;10.52;2.15;;;;;;;22.77;54.38;102433.72;5067510;28;20400;-64
2022/07/11 01:24:46;;;;;;;5.32;2.22;;;;;;;22.08;56.99;102432.19;5067590;28;20095;-64
2022/07/11 01:27:12;;;;;;;8.63;2.40;;;;;;;22.65;54.66;102431.19;5067259;28;20036;-64
2022/07/11 01:29:38;;;;;;;7.57;2.00;;;;;;;23.04;54.04;102445.34;5067002;28;20090;-64
2022/07/11 01:32:04;;;;;;;8.27;2.25;;;;;;;22.68;55.18;102429.84;5070942;28;20024;-66
2022/07/11 01:34:30;;;;;;;6.30;1.90;;;;;;;22.59;55.12;102432.28;5087850;28;20028;-65
2022/07/11 01:36:55;;;;;;;5.43;2.20;;;;;;;22.76;55.24;102432.06;5087575;28;20487;-65
2022/07/11 01:39:21;;;;;;;8.48;2.10;;;;;;;22.97;54.51;102425.56;5088395;28;20032;-65
2022/07/11 01:41:46;;;;;;;8.38;2.28;;;;;;;23.35;53.02;102433.38;5088261;28;20036;-64
2022/07/11 01:44:11;;;;;;;4.50;2.03;;;;;;;23.01;54.11;102434.91;5089058;28;20070;-66
2022/07/11 01:46:37;;;;;;;2.75;2.30;;;;;;;23.17;53.78;102431.13;5087846;28;20086;-66
2022/07/11 01:49:02;;;;;;;7.30;2.38;;;;;;;22.45;56.18;102436.53;5088026;28;20036;-64
2022/07/11 01:51:29;;;;;;;5.28;2.20;;;;;;;22.84;54.88;102437.03;5087379;28;20547;-65
2022/07/11 01:53:55;;;;;;;5.47;2.58;;;;;;;23.18;53.92;102435.50;5087550;28;20031;-67
2022/07/11 01:56:21;;;;;;;5.20;2.55;;;;;;;23.04;54.51;102437.09;5088830;28;20391;-66
2022/07/11 01:58:47;;;;;;;3.30;2.17;;;;;;;23.07;54.58;102441.22;5088699;28;20495;-67
2022/07/11 02:01:12;;;;;;;6.03;2.00;;;;;;;23.01;54.31;102437.66;5087770;28;20085;-66
2022/07/11 02:03:38;;;;;;;8.93;2.28;;;;;;;22.95;54.76;102436.00;5087703;28;20043;-66
2022/07/11 02:06:04;;;;;;;5.10;2.40;;;;;;;22.89;54.69;102437.06;5087678;28;20492;-65
2022/07/11 02:08:29;;;;;;;3.45;2.10;;;;;;;22.74;55.08;102437.00;5075744;28;20044;-66
2022/07/11 02:10:55;;;;;;;8.00;3.03;;;;;;;22.51;56.01;102437.38;5068630;28;20036;-67
2022/07/11 02:13:22;;;;;;;10.63;2.50;;;;;;;22.65;55.61;102444.06;5090977;28;20024;-67
2022/07/11 02:15:52;;;;;;;4.85;2.35;;;;;;;22.88;54.80;102440.09;5091841;28;20123;-66
2022/07/11 02:18:20;;;;;;;7.07;3.13;;;;;;;22.88;54.96;102437.34;5079691;28;20136;-65
2022/07/11 02:20:46;;;;;;;6.95;2.13;;;;;;;23.06;54.45;102445.88;5071208;28;20040;-65
2022/07/11 02:23:12;;;;;;;10.70;2.60;;;;;;;22.74;55.92;102431.53;5071663;28;20090;-65
2022/07/11 02:25:38;;;;;;;5.95;2.65;;;;;;;22.54;56.16;102434.13;5071285;28;20039;-67
2022/07/11 02:28:05;;;;;;;8.93;2.55;;;;;;;22.65;56.10;102442.16;5071160;28;20036;-64
2022/07/11 02:30:31;;;;;;;5.32;2.22;;;;;;;23.12;54.80;102436.59;5071145;28;20029;-63
2022/07/11 02:32:56;;;;;;;9.43;2.83;;;;;;;23.06;54.61;102437.66;5071534;28;20029;-65
2022/07/11 02:35:22;;;;;;;11.70;2.80;;;;;;;22.59;56.18;102432.28;5071590;28;20024;-66
2022/07/11 02:37:48;;;;;;;5.22;2.20;;;;;;;22.28;57.24;102435.06;5071527;28;20036;-65
2022/07/11 02:40:14;;;;;;;4.13;2.78;;;;;;;22.02;58.38;102433.22;5071084;28;20045;-64
2022/07/11 02:42:39;;;;;;;5.05;2.45;;;;;;;22.38;56.61;102437.88;5071060;28;20033;-65
2022/07/11 02:45:06;;;;;;;8.45;3.10;;;;;;;21.61;59.48;102437.50;5071077;28;20036;-64
2022/07/11 02:47:32;;;;;;;9.73;3.33;;;;;;;22.67;55.99;102447.38;5071192;28;20060;-66
2022/07/11 02:49:57;;;;;;;6.07;2.80;;;;;;;22.62;56.04;102439.13;5070548;28;20048;-66
2022/07/11 02:52:23;;;;;;;9.27;2.83;;;;;;;22.53;56.55;102433.28;5070496;28;20107;-68
2022/07/11 02:54:48;;;;;;;3.70;2.20;;;;;;;22.06;57.89;102432.44;5070909;28;20032;-65
2022/07/11 02:57:13;;;;;;;8.20;3.28;;;;;;;22.26;57.74;102431.75;5070476;28;20067;-66
2022/07/11 02:59:39;;;;;;;14.57;2.83;;;;;;;22.58;56.40;102438.03;5070545;28;20040;-65
2022/07/11 03:02:04;;;;;;;9.90;2.67;;;;;;;22.96;55.25;102431.34;5071267;28;20024;-64
2022/07/11 03:04:33;;;;;;;3.60;2.10;;;;;;;22.56;56.59;102435.50;5070336;28;20044;-65
2022/07/11 03:06:59;;;;;;;3.70;1.52;;;;;;;22.20;57.08;102441.03;5070060;28;20048;-64
2022/07/11 03:09:25;;;;;;;4.68;1.42;;;;;;;22.18;57.18;102437.72;5070667;28;20451;-64
2022/07/11 03:11:50;;;;;;;7.68;1.80;;;;;;;22.48;56.26;102440.66;5079559;28;20583;-64
2022/07/11 03:14:16;;;;;;;4.18;1.88;;;;;;;22.13;57.01;102432.22;5072451;28;20040;-66
2022/07/11 03:16:42;;;;;;;4.18;1.60;;;;;;;22.40;56.60;102436.53;5090229;28;20119;-65
2022/07/11 03:19:07;;;;;;;4.43;1.50;;;;;;;22.18;57.60;102437.72;5071155;28;20044;-67
2022/07/11 03:21:32;;;;;;;5.03;2.50;;;;;;;22.21;57.55;102439.97;5069926;28;20107;-65
2022/07/11 03:23:58;;;;;;;3.65;1.63;;;;;;;22.57;55.91;102439.09;5069393;28;20040;-65
2022/07/11 03:26:23;;;;;;;4.53;2.20;;;;;;;22.03;58.23;102429.41;5070723;28;20090;-65
2022/07/11 03:28:49;;;;;;;4.75;2.00;;;;;;;22.56;56.41;102435.50;5070230;28;20060;-65
2022/07/11 03:31:14;;;;;;;6.45;2.30;;;;;;;22.11;57.87;102437.16;5069784;28;20040;-64
2022/07/11 03:33:40;;;;;;;3.55;1.75;;;;;;;22.09;58.22;102434.69;5069591;28;20031;-65
2022/07/11 03:36:06;;;;;;;4.80;2.15;;;;;;;21.73;59.36;102430.81;5069666;28;20032;-67
2022/07/11 03:38:31;;;;;;;6.45;2.42;;;;;;;22.32;57.63;102427.97;5070414;28;20028;-65
2022/07/11 03:40:57;;;;;;;5.78;2.33;;;;;;;22.21;57.79;102435.28;5069560;28;20515;-65
2022/07/11 03:43:23;;;;;;;7.05;2.67;;;;;;;22.65;56.45;102435.84;5069684;28;20041;-66
2022/07/11 03:45:49;;;;;;;6.05;1.98;;;;;;;22.54;57.13;102432.19;5069938;28;20392;-67
2022/07/11 03:48:14;;;;;;;6.70;2.65;;;;;;;22.39;57.48;102434.03;5069798;28;20044;-65
2022/07/11 03:50:39;;;;;;;8.15;2.90;;;;;;;22.57;56.91;102437.19;5051815;28;20380;-65
2022/07/11 03:53:05;;;;;;;8.05;3.05;;;;;;;22.73;56.29;102442.72;5069966;28;20361;-66
2022/07/11 03:55:31;;;;;;;6.88;2.85;;;;;;;22.96;55.70;102443.09;5069407;28;20036;-66
2022/07/11 03:57:57;;;;;;;7.70;3.17;;;;;;;22.53;57.04;102440.69;5087575;28;20040;-67
2022/07/11 04:00:23;;;;;;;4.63;2.67;;;;;;;22.79;56.13;102431.53;5082524;28;20029;-65
2022/07/11 04:02:48;;;;;;;13.98;5.35;;;;;;;22.80;56.15;102435.91;5067456;28;20090;-64
2022/07/11 04:05:14;;;;;;;6.63;3.08;;;;;;;22.89;56.05;102447.19;5051183;28;20032;-65
2022/07/11 04:07:39;;;;;;;3.30;2.95;;;;;;;22.26;57.36;102440.81;5068866;28;20086;-64
2022/07/11 04:10:06;;;;;;;9.88;3.40;;;;;;;22.29;57.96;102448.50;5069077;28;20128;-65
2022/07/11 04:12:31;;;;;;;8.93;3.60;;;;;;;22.46;57.71;102446.44;5068882;28;20056;-64
2022/07/11 04:14:57;;;;;;;9.13;3.88;;;;;;;22.54;56.75;102448.63;5068994;28;20515;-66
2022/07/11 04:17:22;;;;;;;6.85;3.13;;;;;;;22.10;58.81;102446.44;5049585;28;20519;-65
2022/07/11 04:19:48;;;;;;;8.75;3.47;;;;;;;22.62;56.94;102442.69;5049440;28;20041;-63
2022/07/11 04:22:13;;;;;;;4.82;3.20;;;;;;;22.76;56.87;102445.75;5068980;28;20036;-65
2022/07/11 04:24:38;;;;;;;4.18;2.80;;;;;;;22.86;56.76;102445.00;5068783;28;20499;-64
2022/07/11 04:27:04;;;;;;;10.18;3.33;;;;;;;22.69;56.74;102447.94;5047383;28;20099;-66
2022/07/11 04:29:31;;;;;;;5.53;3.08;;;;;;;22.64;57.54;102439.69;5049401;28;20543;-67
2022/07/11 04:31:56;;;;;;;4.82;2.72;;;;;;;22.73;57.33;102440.81;5048795;28;20045;-66
2022/07/11 04:34:21;;;;;;;4.70;2.58;;;;;;;22.63;57.70;102441.59;5057398;28;20025;-66
2022/07/11 04:36:47;;;;;;;3.35;2.30;;;;;;;22.79;57.06;102441.66;5068501;28;20396;-66
2022/07/11 04:39:12;;;;;;;4.03;1.77;;;;;;;22.91;57.15;102445.00;5068805;28;20407;-65
2022/07/11 04:41:38;;;;;;;5.32;2.42;;;;;;;23.08;55.99;102451.09;5050134;28;20037;-65
2022/07/11 04:44:03;;;;;;;3.55;2.13;;;;;;;22.73;57.57;102449.06;5050612;28;20045;-66
2022/07/11 04:46:29;;;;;;;7.97;2.20;;;;;;;22.85;56.86;102444.16;5068523;28;20047;-64
2022/07/11 04:48:55;;;;;;;4.45;2.15;;;;;;;23.24;55.92;102447.31;5050184;28;20040;-65
2022/07/11 04:51:21;;;;;;;3.05;1.55;;;;;;;23.29;55.61;102450.09;5068464;28;20043;-66
2022/07/11 04:53:47;;;;;;;4.72;1.67;;;;;;;23.16;55.78;102450.56;5068661;28;20106;-65
2022/07/11 04:56:13;;;;;;;2.50;1.30;;;;;;;22.98;56.73;102454.63;5068543;28;20423;-65
2022/07/11 04:58:38;;;;;;;2.78;1.50;;;;;;;23.00;56.00;102462.59;5068275;28;20067;-64
2022/07/11 05:01:04;;;;;;;1.73;1.10;;;;;;;22.96;55.57;102461.50;5068396;28;20626;-65
2022/07/11 05:03:29;;;;;;;5.15;1.35;;;;;;;22.66;56.47;102459.44;5068222;28;20033;-65
2022/07/11 05:05:55;;;;;;;2.10;1.10;;;;;;;23.00;56.02;102465.31;5067873;28;20512;-65
2022/07/11 05:08:21;;;;;;;2.03;1.40;;;;;;;22.85;56.15;102459.78;5080016;28;20023;-64
2022/07/11 05:10:47;;;;;;;1.40;1.02;;;;;;;23.09;55.99;102461.81;5088728;28;20036;-66
2022/07/11 05:13:12;;;;;;;2.25;1.50;;;;;;;22.99;56.36;102466.44;5088098;28;20040;-64
2022/07/11 05:15:39;;;;;;;5.32;1.58;;;;;;;22.13;58.76;102478.78;5082409;28;20381;-66
2022/07/11 05:18:05;;;;;;;5.25;1.67;;;;;;;22.97;56.67;102472.19;5068226;28;20033;-65
2022/07/11 05:20:30;;;;;;;3.92;1.60;;;;;;;23.13;56.06;102460.19;5068533;28;20043;-65
2022/07/11 05:22:56;;;;;;;1.30;1.20;;;;;;;23.45;54.71;102471.81;5067655;28;20500;-65
2022/07/11 05:25:22;;;;;;;4.32;1.40;;;;;;;23.85;53.89;102470.22;5067715;28;20132;-65
2022/07/11 05:27:47;;;;;;;2.20;1.38;;;;;;;23.80;53.36;102479.28;5046615;28;20448;-65
2022/07/11 05:30:13;;;;;;;3.38;1.40;;;;;;;23.66;53.65;102477.34;5047940;28;20029;-64
2022/07/11 05:32:38;;;;;;;2.50;1.40;;;;;;;23.93;53.58;102476.00;5047996;28;20102;-64
2022/07/11 05:35:04;;;;;;;5.07;1.45;;;;;;;23.22;55.37;102479.69;5048271;28;20496;-64
2022/07/11 05:37:30;;;;;;;5.85;1.88;;;;;;;23.43;54.53;102476.75;5047419;28;20500;-66
2022/07/11 05:39:55;;;;;;;2.72;1.40;;;;;;;23.85;53.49;102475.69;5047872;28;20034;-65
2022/07/11 05:42:21;;;;;;;7.20;1.83;;;;;;;23.84;53.45;102485.06;5030381;28;20040;-66
2022/07/11 05:44:46;;;;;;;4.63;1.55;;;;;;;24.28;52.40;102470.50;5048140;28;20084;-65
2022/07/11 05:47:11;;;;;;;2.70;1.45;;;;;;;24.19;52.33;102474.91;5068570;28;20055;-64
2022/07/11 05:49:37;;;;;;;2.35;1.00;;;;;;;23.81;53.26;102486.41;5070572;28;20037;-65
2022/07/11 05:52:02;;;;;;;1.95;1.00;;;;;;;24.14;52.49;102479.56;5069971;28;20036;-65
2022/07/11 05:54:28;;;;;;;2.08;1.20;;;;;;;23.21;54.67;102489.00;5069859;28;20508;-65
2022/07/11 05:56:54;;;;;;;1.50;0.88;;;;;;;23.01;55.18;102484.28;5070469;28;20037;-65
2022/07/11 05:59:20;;;;;;;2.08;1.08;;;;;;;23.00;55.49;102477.13;5071387;28;20064;-65
2022/07/11 06:01:46;;;;;;;1.83;0.93;;;;;;;23.31;54.64;102484.38;5070212;28;20106;-65
2022/07/11 06:04:12;;;;;;;3.90;0.95;;;;;;;23.94;53.20;102487.81;5070136;28;20033;-65
2022/07/11 06:06:37;;;;;;;2.55;1.20;;;;;;;23.54;53.81;102492.16;5070125;28;20028;-64
2022/07/11 06:09:03;;;;;;;4.85;1.58;;;;;;;23.63;54.17;102491.59;5072586;28;20039;-66
2022/07/11 06:11:28;;;;;;;1.40;1.00;;;;;;;24.24;52.86;102493.31;5070517;28;20032;-65
2022/07/11 06:13:54;;;;;;;5.80;1.35;;;;;;;23.62;54.07;102490.78;5070548;28;20044;-64
2022/07/11 06:16:19;;;;;;;1.38;0.70;;;;;;;23.55;53.94;102495.69;5070659;28;20055;-64
2022/07/11 06:18:45;;;;;;;1.98;1.02;;;;;;;23.99;52.93;102490.53;5067429;28;20040;-64
2022/07/11 06:21:11;;;;;;;2.05;1.10;;;;;;;23.43;54.70;102493.22;5070079;28;20036;-66
2022/07/11 06:23:36;;;;;;;1.90;0.80;;;;;;;23.08;55.65;102492.25;5063041;28;20476;-62
2022/07/11 06:26:02;;;;;;;3.05;0.88;;;;;;;23.51;54.91;102489.94;5059616;28;20492;-65
2022/07/11 06:28:28;;;;;;;1.65;1.02;;;;;;;23.72;53.78;102485.31;5069150;28;20167;-64
2022/07/11 06:30:53;;;;;;;1.55;1.00;;;;;;;23.35;54.60;102481.97;5069217;28;20420;-65
2022/07/11 06:33:19;;;;;;;1.40;0.80;;;;;;;24.02;52.42;102488.09;5069976;28;20040;-65
2022/07/11 06:35:46;;;;;;;1.65;0.70;;;;;;;24.48;51.48;102477.88;5068885;28;20506;-65
2022/07/11 06:38:13;;;;;;;3.28;0.60;;;;;;;24.09;51.77;102485.06;5070064;28;20357;-64
2022/07/11 06:40:38;;;;;;;1.75;0.93;;;;;;;24.33;51.40;102484.22;5069476;28;20288;-66
2022/07/11 06:43:04;;;;;;;1.50;0.80;;;;;;;24.17;51.71;102473.53;5069415;28;20086;-66
2022/07/11 06:45:30;;;;;;;1.63;0.50;;;;;;;23.91;52.53;102478.19;5069345;28;20495;-65
2022/07/11 06:47:55;;;;;;;0.90;0.50;;;;;;;24.06;51.95;102475.47;5069217;28;20045;-64
2022/07/11 06:50:20;;;;;;;1.10;0.43;;;;;;;24.05;52.49;102468.31;5070255;28;20021;-65
2022/07/11 06:52:47;;;;;;;1.65;0.50;;;;;;;24.13;51.52;102472.44;5067916;28;20099;-65
2022/07/11 06:55:13;;;;;;;1.92;0.47;;;;;;;24.57;50.78;102476.19;5059323;28;20044;-64
2022/07/11 06:57:38;;;;;;;1.38;0.50;;;;;;;24.74;50.31;102465.75;5069288;28;20061;-67
2022/07/11 07:00:05;;;;;;;0.45;0.25;;;;;;;25.04;50.13;102462.06;5068269;28;20075;-66
2022/07/11 07:02:30;;;;;;;2.13;0.60;;;;;;;24.96;49.87;102463.44;5068986;28;20107;-65
2022/07/11 07:04:58;;;;;;;2.28;0.70;;;;;;;23.88;52.50;102473.22;5066943;28;20128;-65
2022/07/11 07:07:23;;;;;;;2.80;0.75;;;;;;;23.51;54.56;102476.22;5069539;28;20033;-65
2022/07/11 07:09:50;;;;;;;0.95;0.65;;;;;;;23.17;55.23;102482.41;5070255;28;20028;-64
2022/07/11 07:12:16;;;;;;;1.45;0.55;;;;;;;23.67;53.64;102485.28;5058005;28;20036;-65
2022/07/11 07:14:41;;;;;;;0.85;0.40;;;;;;;24.03;53.18;102483.44;5064148;28;20492;-65
2022/07/11 07:17:07;;;;;;;7.72;1.10;;;;;;;23.50;54.03;102485.56;5069229;28;20028;-65
2022/07/11 07:19:32;;;;;;;3.60;0.90;;;;;;;22.83;55.82;102481.16;5069600;28;20385;-65
2022/07/11 07:21:58;;;;;;;2.65;0.80;;;;;;;23.96;52.95;102478.16;5070072;28;20123;-66
2022/07/11 07:24:23;;;;;;;3.13;1.13;;;;;;;24.24;52.29;102483.13;5062981;28;20051;-65
2022/07/11 07:26:48;;;;;;;1.27;1.00;;;;;;;24.17;52.18;102476.28;5065352;28;20034;-65
2022/07/11 07:29:14;;;;;;;1.15;0.50;;;;;;;23.83;52.73;102488.88;5063914;28;20024;-65
2022/07/11 07:31:39;;;;;;;0.93;0.65;;;;;;;24.20;52.33;102494.94;5079020;28;20083;-66
2022/07/11 07:34:05;;;;;;;7.22;0.90;;;;;;;24.08;52.63;102500.72;5067802;28;20033;-65
2022/07/11 07:36:30;;;;;;;4.00;0.88;;;;;;;23.65;53.91;102501.22;5067755;28;20025;-64
2022/07/11 07:38:55;;;;;;;1.88;0.70;;;;;;;23.73;54.21;102503.44;5062825;28;20448;-65
2022/07/11 07:41:21;;;;;;;3.38;1.55;;;;;;;23.45;54.97;102499.25;5065663;28;20373;-65
2022/07/11 07:43:48;;;;;;;8.45;1.38;;;;;;;23.23;55.35;102500.53;5066161;28;20393;-64
2022/07/11 07:46:15;;;;;;;0.80;0.73;;;;;;;23.83;53.90;102508.94;5081922;28;20098;-63
2022/07/11 07:48:41;;;;;;;2.58;0.95;;;;;;;23.60;54.73;102511.38;5083246;28;20029;-63
2022/07/11 07:51:07;;;;;;;0.80;0.40;;;;;;;24.13;52.73;102510.91;5064428;28;20063;-65
2022/07/11 07:53:32;;;;;;;2.08;0.43;;;;;;;23.99;52.23;102502.34;5065923;28;20052;-64
2022/07/11 07:55:58;;;;;;;1.83;0.50;;;;;;;24.07;52.88;102499.09;5065766;28;20116;-64
2022/07/11 07:58:23;;;;;;;0.73;0.60;;;;;;;24.49;51.48;102496.00;5080529;28;20441;-64
2022/07/11 08:03:32;;;;;;;3.40;0.50;;;;;;;24.85;51.01;102502.28;5065132;28;20355;-64
2022/07/11 08:05:58;;;;;;;0.43;0.32;;;;;;;24.45;52.32;102507.84;5066066;28;20488;-64
2022/07/11 08:08:23;;;;;;;1.23;0.40;;;;;;;24.80;51.55;102496.81;5066675;28;20025;-63
2022/07/11 08:10:50;;;;;;;3.30;0.40;;;;;;;25.44;49.60;102505.06;5072156;28;20036;-64
2022/07/11 08:13:16;;;;;;;2.58;0.60;;;;;;;25.91;48.88;102508.03;5071581;28;20091;-63
2022/07/11 08:15:41;;;;;;;0.73;0.43;;;;;;;25.13;49.61;102505.19;5065122;28;20052;-63
2022/07/11 08:18:07;;;;;;;0.65;0.47;;;;;;;24.27;51.68;102515.53;5050781;28;20497;-64
2022/07/11 08:20:33;;;;;;;1.17;0.30;;;;;;;23.83;53.58;102516.34;5066079;28;20032;-64
2022/07/11 08:23:00;;;;;;;1.88;0.40;;;;;;;24.62;51.41;102500.13;5067419;28;20036;-63
2022/07/11 08:25:25;;;;;;;1.33;0.50;;;;;;;24.88;50.18;102510.81;5065681;28;20496;-63
2022/07/11 08:27:51;;;;;;;0.68;0.30;;;;;;;23.61;53.18;102516.56;5083427;28;20112;-71
2022/07/11 08:30:16;;;;;;;0.30;0.30;;;;;;;23.60;53.82;102514.94;5047977;28;20404;-68
2022/07/11 08:32:43;;;;;;;0.73;0.52;;;;;;;24.36;51.21;102511.16;5062797;28;20034;-67
2022/07/11 08:35:09;;;;;;;2.60;0.57;;;;;;;24.52;51.28;102511.13;5063557;28;20447;-68
2022/07/11 08:37:36;;;;;;;1.90;0.40;;;;;;;24.69;50.75;102514.38;5064904;28;20090;-69
2022/07/11 08:40:03;;;;;;;0.10;0.10;;;;;;;25.05;49.77;102508.53;5064512;28;20033;-68
2022/07/11 08:42:32;;;;;;;0.60;0.40;;;;;;;24.79;50.09;102503.38;5061797;28;20047;-68
2022/07/11 08:44:58;;;;;;;0.90;0.22;;;;;;;24.49;50.14;102509.75;5065157;28;20060;-67
2022/07/11 08:47:24;;;;;;;1.30;0.10;;;;;;;23.95;51.73;102508.66;5065142;28;20098;-68
2022/07/11 08:49:51;;;;;;;0.20;0.20;;;;;;;24.55;50.88;102507.84;5062277;28;20024;-68
2022/07/11 08:52:19;;;;;;;0.43;0.25;;;;;;;25.27;49.08;102500.72;5065150;28;20056;-67
2022/07/11 08:54:45;;;;;;;0.75;0.30;;;;;;;25.04;49.30;102500.56;5064169;28;20147;-67
2022/07/11 08:57:10;;;;;;;0.32;0.20;;;;;;;25.43;48.04;102498.75;5064684;28;20135;-67
2022/07/11 08:59:41;;;;;;;0.55;0.52;;;;;;;25.22;48.82;102498.00;5065060;28;20094;-68
2022/07/11 09:02:08;;;;;;;1.20;0.20;;;;;;;25.88;47.80;102494.84;5047177;28;20140;-67
2022/07/11 09:04:34;;;;;;;0.45;0.10;;;;;;;26.22;46.93;102494.88;5044345;28;20072;-66
2022/07/11 09:07:03;;;;;;;0.10;0.10;;;;;;;25.70;46.90;102487.28;5081636;28;20081;-68
2022/07/11 09:09:29;;;;;;;1.70;0.30;;;;;;;25.88;46.57;102500.34;5084845;28;20641;-66
2022/07/11 09:11:58;;;;;;;1.00;0.57;;;;;;;26.74;45.58;102492.13;5067057;28;20028;-68
2022/07/11 09:14:28;;;;;;;1.00;0.35;;;;;;;25.53;48.26;102489.59;5045897;28;20032;-67
2022/07/11 09:16:56;;;;;;;0.20;0.20;;;;;;;24.51;50.49;102496.56;5061756;28;20166;-67
2022/07/11 09:19:26;;;;;;;1.40;0.40;;;;;;;25.13;49.90;102496.94;5066323;28;20496;-67
2022/07/11 09:25:21;;;;;;;1.65;0.35;;;;;;;25.60;48.39;102499.19;5063992;28;20024;-68
2022/07/11 09:27:50;;;;;;;0.85;0.52;;;;;;;25.56;48.93;102492.59;5045559;28;20040;-70
2022/07/11 09:30:17;;;;;;;0.30;0.20;;;;;;;26.14;47.21;102485.31;5062151;28;20356;-69
2022/07/11 09:32:55;;;;;;;0.77;0.38;;;;;;;26.49;46.37;102495.16;5064442;28;20056;-68
2022/07/11 09:35:22;;;;;;;1.02;0.38;;;;;;;25.92;47.00;102495.91;5063734;28;20555;-68
2022/07/11 09:37:48;;;;;;;0.65;0.28;;;;;;;25.98;46.78;102492.81;5064269;28;20045;-67
2022/07/11 09:40:14;;;;;;;1.08;0.40;;;;;;;26.06;46.24;102497.75;5063981;28;20501;-68
2022/07/11 09:42:51;;;;;;;1.40;0.20;;;;;;;26.29;44.93;102496.19;5064871;28;20476;-68
2022/07/11 09:45:18;;;;;;;3.63;0.20;;;;;;;25.40;47.73;102498.47;5062592;28;20055;-67
2022/07/11 09:47:45;;;;;;;0.68;0.30;;;;;;;24.98;49.75;102499.75;5064630;28;20112;-68
2022/07/11 09:50:12;;;;;;;0.80;0.30;;;;;;;25.46;48.87;102500.91;5064396;28;20027;-67
2022/07/11 09:52:38;;;;;;;0.20;0.20;;;;;;;25.97;47.61;102501.38;5046165;28;20052;-68
2022/07/11 09:55:05;;;;;;;0.40;0.20;;;;;;;25.73;47.75;102504.03;5064710;28;20047;-67
2022/07/11 09:57:40;;;;;;;1.50;0.20;;;;;;;24.57;49.81;102505.63;5063471;28;20052;-68
2022/07/11 10:00:06;;;;;;;1.08;0.30;;;;;;;24.70;50.50;102499.53;5063426;28;20028;-67
2022/07/11 10:02:32;;;;;;;0.50;0.30;;;;;;;25.41;49.24;102494.63;5063134;28;20017;-68
2022/07/11 10:04:59;;;;;;;0.60;0.30;;;;;;;25.50;48.87;102495.66;5064210;28;20048;-68
2022/07/11 10:07:25;;;;;;;2.72;0.35;;;;;;;25.67;48.73;102499.66;5063187;28;20059;-67
2022/07/11 10:09:50;;;;;;;0.38;0.30;;;;;;;25.53;48.68;102498.69;5064360;28;20032;-69
2022/07/11 10:12:16;;;;;;;0.65;0.20;;;;;;;25.83;47.78;102495.69;5063705;28;20067;-67
2022/07/11 10:14:43;;;;;;;0.30;0.13;;;;;;;25.17;48.49;102500.78;5063044;28;20123;-68
2022/07/11 10:17:40;;;;;;;0.60;0.13;;;;;;;24.81;50.12;102499.25;5064266;28;20543;-67
2022/07/11 10:20:11;;;;;;;0.57;0.13;;;;;;;24.81;49.79;102501.19;5060359;28;20156;-68
2022/07/11 10:22:43;;;;;;;0.52;0.25;;;;;;;24.73;50.86;102497.09;5062319;28;20254;-68
2022/07/11 10:25:25;;;;;;;0.30;0.20;;;;;;;24.82;49.98;102498.19;5060633;28;20094;-67
2022/07/11 10:28:09;;;;;;;0.38;0.30;;;;;;;25.22;49.24;102494.41;5065903;28;20483;-68
2022/07/11 10:30:44;;;;;;;0.50;0.43;;;;;;;25.74;47.79;102502.13;5083845;28;20128;-69
2022/07/11 10:33:09;;;;;;;1.88;0.30;;;;;;;25.86;47.52;102497.06;5084831;28;20028;-68
2022/07/11 10:35:35;;;;;;;0.43;0.32;;;;;;;25.67;47.47;102501.63;5068857;28;20437;-68
2022/07/11 10:38:05;;;;;;;0.20;0.15;;;;;;;26.25;46.03;102497.03;5067138;28;20063;-67
2022/07/11 10:40:57;;;;;;;1.85;0.30;;;;;;;25.36;48.11;102503.69;5067095;28;20060;-67
2022/07/11 10:43:22;;;;;;;1.20;0.30;;;;;;;26.05;46.99;102509.84;5064151;28;20136;-68
2022/07/11 10:46:08;;;;;;;0.73;0.50;;;;;;;25.88;47.84;102512.22;5049250;28;20526;-68
2022/07/11 10:48:35;;;;;;;1.60;0.65;;;;;;;26.02;47.66;102518.69;5066063;28;20397;-69
2022/07/11 10:51:19;;;;;;;0.47;0.40;;;;;;;25.99;47.41;102522.03;5060294;28;20090;-68
2022/07/11 10:53:49;;;;;;;1.08;0.20;;;;;;;26.04;47.19;102519.22;5060489;28;20167;-69
2022/07/11 10:56:33;;;;;;;0.55;0.38;;;;;;;25.55;48.27;102514.91;5067764;28;20230;-69
2022/07/11 10:59:14;;;;;;;4.28;0.22;;;;;;;26.27;46.78;102514.94;5065321;28;20032;-70
2022/07/11 11:02:11;;;;;;;1.23;0.20;;;;;;;26.35;46.06;102514.31;5065362;28;20068;-69
2022/07/11 11:04:47;;;;;;;1.38;0.40;;;;;;;25.90;47.51;102511.91;5066266;28;20412;-70
2022/07/11 11:07:38;;;;;;;0.52;0.20;;;;;;;25.70;47.92;102518.41;5065671;28;20111;-70
2022/07/11 11:10:12;;;;;;;;;;;;;;;26.72;44.90;102508.16;5065041;28;20040;-69
2022/07/11 11:13:06;;;;;;;0.32;0.32;;;;;;;26.51;45.59;102510.28;5066391;28;20343;-69
2022/07/11 11:15:54;;;;;;;2.10;0.22;;;;;;;26.94;45.09;102508.47;5062969;28;20072;-68
2022/07/11 11:18:23;;;;;;;0.63;0.20;;;;;;;26.86;45.23;102509.94;5064009;28;20334;-69
2022/07/11 11:21:02;;;;;;;0.55;0.30;;;;;;;25.50;47.86;102514.94;5064950;28;20020;-70
2022/07/11 11:23:30;;;;;;;0.52;0.30;;;;;;;25.78;48.44;102526.06;5064048;28;20040;-68
2022/07/11 11:26:14;;;;;;;1.77;0.50;;;;;;;25.83;47.44;102526.00;5063986;28;20033;-69
2022/07/11 11:28:55;;;;;;;1.45;0.30;;;;;;;26.15;46.94;102524.69;5064771;28;20408;-70
2022/07/11 11:31:21;;;;;;;1.25;0.85;;;;;;;26.33;47.04;102518.47;5066092;28;20541;-68